createdAt,value
2019-05-02T00:00:15.491Z,63.48
2019-05-02T00:02:44.139Z,60.83
2019-05-02T00:05:13.129Z,52.90
2019-05-02T00:07:44.742Z,52.03
2019-05-02T00:10:15.009Z,55.33
2019-05-02T00:12:46.446Z,57.48
2019-05-02T00:15:18.966Z,57.50
2019-05-02T00:17:48.031Z,56.92
2019-05-02T00:20:21.182Z,61.45
2019-05-02T00:22:52.158Z,50.38
2019-05-02T00:25:20.376Z,59.15
2019-05-02T00:27:49.250Z,61.88
2019-05-02T00:30:18.297Z,54.42
2019-05-02T00:32:46.880Z,60.65
2019-05-02T00:35:15.746Z,56.10
2019-05-02T00:37:44.639Z,53.55
2019-05-02T00:40:20.288Z,50.95
2019-05-02T00:42:47.263Z,60.58
2019-05-02T00:45:18.733Z,62.53
2019-05-02T00:47:57.080Z,56.02
2019-05-02T00:50:26.596Z,52.67
2019-05-02T00:52:55.382Z,64.62
2019-05-02T00:55:29.014Z,56.90
2019-05-02T00:57:57.888Z,56.20
2019-05-02T01:00:26.830Z,52.40
2019-05-02T01:02:59.645Z,52.27
2019-05-02T01:05:28.400Z,57.43
2019-05-02T01:08:01.119Z,56.10
2019-05-02T01:10:27.664Z,62.03
2019-05-02T01:12:56.120Z,54.20
2019-05-02T01:15:24.858Z,54.05
2019-05-02T01:17:53.344Z,57.75
2019-05-02T01:20:22.299Z,61.80
2019-05-02T01:22:53.629Z,54.75
2019-05-02T01:25:22.710Z,53.95
2019-05-02T01:28:12.715Z,55.90
2019-05-02T01:30:59.998Z,56.95
2019-05-02T01:33:30.152Z,58.05
2019-05-02T01:36:06.270Z,50.45
2019-05-02T01:38:44.368Z,56.20
2019-05-02T01:41:13.181Z,60.83
2019-05-02T01:43:41.771Z,54.83
2019-05-02T01:46:10.492Z,52.70
2019-05-02T01:48:40.188Z,53.68
2019-05-02T01:51:11.881Z,58.02
2019-05-02T01:53:40.131Z,55.08
2019-05-02T01:56:08.571Z,56.45
2019-05-02T01:58:37.117Z,58.13
2019-05-02T02:01:05.794Z,54.93
2019-05-02T02:03:34.382Z,57.20
2019-05-02T02:06:08.063Z,51.20
2019-05-02T02:08:34.050Z,57.20
2019-05-02T02:11:02.858Z,56.42
2019-05-02T02:13:36.354Z,58.05
2019-05-02T02:16:04.547Z,56.60
2019-05-02T02:18:33.709Z,55.90
2019-05-02T02:21:05.649Z,52.83
2019-05-02T02:23:44.920Z,60.73
2019-05-02T02:26:22.535Z,51.68
2019-05-02T02:28:53.143Z,56.83
2019-05-02T02:31:22.731Z,64.25
2019-05-02T02:33:51.626Z,56.40
2019-05-02T02:36:30.004Z,53.08
2019-05-02T02:38:51.454Z,56.28
2019-05-02T02:41:19.992Z,54.50
2019-05-02T02:43:54.745Z,56.00
2019-05-02T02:46:22.501Z,50.67
2019-05-02T02:48:51.249Z,54.75
2019-05-02T02:51:23.791Z,59.38
2019-05-02T02:53:50.412Z,53.73
2019-05-02T02:56:20.349Z,56.00
2019-05-02T02:58:48.860Z,54.33
2019-05-02T03:01:27.518Z,56.15
2019-05-02T03:03:48.359Z,54.45
2019-05-02T03:06:17.066Z,47.48
2019-05-02T03:08:49.226Z,55.17
2019-05-02T03:11:23.826Z,58.23
2019-05-02T03:14:05.733Z,62.93
2019-05-02T03:16:34.104Z,59.53
2019-05-02T03:19:02.887Z,66.30
2019-05-02T03:21:31.721Z,57.93
2019-05-02T03:24:05.604Z,56.73
2019-05-02T03:26:33.864Z,65.92
2019-05-02T03:29:03.023Z,59.90
2019-05-02T03:31:31.933Z,61.53
2019-05-02T03:34:01.481Z,57.30
2019-05-02T03:36:36.312Z,61.05
2019-05-02T03:39:13.316Z,65.92
2019-05-02T03:41:34.650Z,55.00
2019-05-02T03:44:11.140Z,58.42
2019-05-02T03:46:34.863Z,65.12
2019-05-02T03:49:07.092Z,56.77
2019-05-02T03:51:33.958Z,64.65
2019-05-02T03:54:07.738Z,49.85
2019-05-02T03:56:32.861Z,56.88
2019-05-02T03:59:01.402Z,56.40
2019-05-02T04:01:34.804Z,64.30
2019-05-02T04:04:00.825Z,60.70
2019-05-02T04:06:30.711Z,46.60
2019-05-02T04:09:01.794Z,61.45
2019-05-02T04:11:38.388Z,70.17
2019-05-02T04:14:00.862Z,62.25
2019-05-02T04:16:30.145Z,63.80
2019-05-02T04:19:01.314Z,62.55
2019-05-02T04:21:30.500Z,68.47
2019-05-02T04:24:13.008Z,66.20
2019-05-02T04:26:30.208Z,60.00
2019-05-02T04:28:58.728Z,65.17
2019-05-02T04:31:31.637Z,61.40
2019-05-02T04:33:58.103Z,66.57
2019-05-02T04:36:28.046Z,60.70
2019-05-02T04:38:59.310Z,55.52
2019-05-02T04:41:29.019Z,71.02
2019-05-02T04:44:01.561Z,67.45
2019-05-02T04:46:31.326Z,68.90
2019-05-02T04:49:01.607Z,68.70
2019-05-02T04:51:31.929Z,58.20
2019-05-02T04:54:00.776Z,72.20
2019-05-02T04:56:29.304Z,63.35
2019-05-02T04:59:01.889Z,67.17
2019-05-02T05:01:33.050Z,66.72
2019-05-02T05:04:02.988Z,69.07
2019-05-02T05:06:31.495Z,72.65
2019-05-02T05:09:04.199Z,66.87
2019-05-02T05:11:30.520Z,71.25
2019-05-02T05:14:00.334Z,64.97
2019-05-02T05:16:29.040Z,66.85
2019-05-02T05:18:57.874Z,66.10
2019-05-02T05:21:28.617Z,56.63
2019-05-02T05:24:01.310Z,66.77
2019-05-02T05:26:33.825Z,79.77
2019-05-02T05:29:01.736Z,76.67
2019-05-02T05:31:30.241Z,69.03
2019-05-02T05:33:59.046Z,77.75
2019-05-02T05:36:32.544Z,72.17
2019-05-02T05:38:58.434Z,66.95
2019-05-02T05:41:27.781Z,65.03
2019-05-02T05:43:57.750Z,71.37
2019-05-02T05:46:28.266Z,55.55
2019-05-02T05:48:58.231Z,65.47
2019-05-02T05:51:29.797Z,69.05
2019-05-02T05:54:02.813Z,68.52
2019-05-02T05:56:32.557Z,63.85
2019-05-02T05:58:59.651Z,66.25
2019-05-02T06:01:34.351Z,60.45
2019-05-02T06:03:58.686Z,58.20
2019-05-02T06:06:27.608Z,62.53
2019-05-02T06:08:56.381Z,64.17
2019-05-02T06:11:25.235Z,71.77
2019-05-02T06:13:54.869Z,67.72
2019-05-02T06:16:23.315Z,69.17
2019-05-02T06:18:51.849Z,62.30
2019-05-02T06:21:22.109Z,63.50
2019-05-02T06:23:50.857Z,67.12
2019-05-02T06:26:19.709Z,68.65
2019-05-02T06:28:48.509Z,70.10
2019-05-02T06:31:17.352Z,67.20
2019-05-02T06:33:46.485Z,64.65
2019-05-02T06:36:14.968Z,61.68
2019-05-02T06:38:43.611Z,66.02
2019-05-02T06:41:16.144Z,63.23
2019-05-02T06:43:46.553Z,64.10
2019-05-02T06:46:16.271Z,64.40
2019-05-02T06:48:48.297Z,65.35
2019-05-02T06:51:19.647Z,65.42
2019-05-02T06:53:47.114Z,60.70
2019-05-02T06:56:14.755Z,65.60
2019-05-02T06:58:43.602Z,64.00
2019-05-02T07:01:16.298Z,58.55
2019-05-02T07:03:46.190Z,69.80
2019-05-02T07:06:13.109Z,67.58
2019-05-02T07:08:41.895Z,65.15
2019-05-02T07:11:10.798Z,55.75
2019-05-02T07:13:41.899Z,72.05
2019-05-02T07:16:16.070Z,68.17
2019-05-02T07:18:53.858Z,77.97
2019-05-02T07:21:23.603Z,79.85
2019-05-02T07:23:53.547Z,83.15
2019-05-02T07:26:23.274Z,75.10
2019-05-02T07:28:53.554Z,78.67
2019-05-02T07:31:22.010Z,81.20
2019-05-02T07:33:50.754Z,83.42
2019-05-02T07:36:19.641Z,80.97
2019-05-02T07:38:49.518Z,76.10
2019-05-02T07:41:17.988Z,81.12
2019-05-02T07:43:46.451Z,78.87
2019-05-02T07:46:16.228Z,73.50
2019-05-02T07:48:49.028Z,74.40
2019-05-02T07:51:17.314Z,66.97
2019-05-02T07:53:48.551Z,70.47
2019-05-02T07:56:18.996Z,65.67
2019-05-02T07:58:48.165Z,64.47
2019-05-02T08:01:16.745Z,64.25
2019-05-02T08:03:45.392Z,60.08
2019-05-02T08:06:14.045Z,60.40
2019-05-02T08:08:42.919Z,60.12
2019-05-02T08:11:11.548Z,62.00
2019-05-02T08:13:40.023Z,57.70
2019-05-02T08:16:08.748Z,59.75
2019-05-02T08:18:37.232Z,59.05
2019-05-02T08:21:05.692Z,55.08
2019-05-02T08:23:34.531Z,64.45
2019-05-02T08:26:03.164Z,59.10
2019-05-02T08:28:42.021Z,60.25
2019-05-02T08:31:13.572Z,57.65
2019-05-02T08:33:41.473Z,52.35
2019-05-02T08:36:09.985Z,56.48
2019-05-02T08:38:38.804Z,52.70
2019-05-02T08:41:07.665Z,51.10
2019-05-02T08:43:40.306Z,52.98
2019-05-02T08:46:09.330Z,50.98
2019-05-02T08:48:41.713Z,52.25
2019-05-02T08:51:07.674Z,55.43
2019-05-02T08:53:36.530Z,54.60
2019-05-02T08:56:05.021Z,52.17
2019-05-02T08:58:33.824Z,52.13
2019-05-02T09:01:02.709Z,57.27
2019-05-02T09:03:38.956Z,55.38
2019-05-02T09:06:05.904Z,50.78
2019-05-02T09:08:32.224Z,51.55
2019-05-02T09:11:00.820Z,52.03
2019-05-02T09:13:30.138Z,53.28
2019-05-02T09:15:58.916Z,52.27
2019-05-02T09:18:35.286Z,57.98
2019-05-02T09:20:58.021Z,51.20
2019-05-02T09:23:32.386Z,50.67
2019-05-02T09:25:56.745Z,47.17
2019-05-02T09:28:25.552Z,45.00
2019-05-02T09:30:57.344Z,48.40
2019-05-02T09:33:24.620Z,47.03
2019-05-02T09:35:53.144Z,47.38
2019-05-02T09:38:22.276Z,46.18
2019-05-02T09:40:52.526Z,51.25
2019-05-02T09:43:22.839Z,50.20
2019-05-02T09:45:52.036Z,53.75
2019-05-02T09:48:22.897Z,53.15
2019-05-02T09:50:52.802Z,51.35
2019-05-02T09:53:25.495Z,54.25
2019-05-02T09:55:57.299Z,54.27
2019-05-02T09:58:24.096Z,47.93
2019-05-02T10:01:11.901Z,54.33
2019-05-02T10:03:42.345Z,58.02
2019-05-02T10:06:13.888Z,57.85
2019-05-02T10:08:43.570Z,64.90
2019-05-02T10:11:22.453Z,59.10
2019-05-02T10:13:51.842Z,64.17
2019-05-02T10:16:23.583Z,57.53
2019-05-02T10:18:52.406Z,56.73
2019-05-02T10:21:22.849Z,58.23
2019-05-02T10:23:59.135Z,51.98
2019-05-02T10:26:24.399Z,56.75
2019-05-02T10:28:53.898Z,105.90
2019-05-02T10:31:27.597Z,56.50
2019-05-02T10:33:56.157Z,48.15
2019-05-02T10:36:24.821Z,49.65
2019-05-02T10:38:54.958Z,55.33
2019-05-02T10:41:23.531Z,49.63
2019-05-02T10:43:56.656Z,51.35
2019-05-02T10:46:27.718Z,55.17
2019-05-02T10:49:05.410Z,54.18
2019-05-02T10:51:41.789Z,53.73
2019-05-02T10:54:07.866Z,62.05
2019-05-02T10:56:36.705Z,57.70
2019-05-02T10:59:05.494Z,65.37
2019-05-02T11:01:36.055Z,68.33
2019-05-02T11:04:08.327Z,68.62
2019-05-02T11:06:41.907Z,68.25
2019-05-02T11:09:12.027Z,63.87
2019-05-02T11:11:42.473Z,67.60
2019-05-02T11:14:18.997Z,67.60
2019-05-02T11:16:58.169Z,69.77
2019-05-02T11:19:31.909Z,63.92
2019-05-02T11:22:02.837Z,71.40
2019-05-02T11:24:34.121Z,74.42
2019-05-02T11:27:02.746Z,70.32
2019-05-02T11:29:32.256Z,76.67
2019-05-02T11:32:02.674Z,76.77
2019-05-02T11:34:36.567Z,76.82
2019-05-02T11:37:05.195Z,81.15
2019-05-02T11:39:43.778Z,64.75
2019-05-02T11:42:04.259Z,59.88
2019-05-02T11:44:32.791Z,51.58
2019-05-02T11:47:02.075Z,58.50
2019-05-02T11:49:32.025Z,50.55
2019-05-02T11:52:04.321Z,56.05
2019-05-02T11:54:32.605Z,55.75
2019-05-02T11:57:02.222Z,58.70
2019-05-02T11:59:31.970Z,50.98
2019-05-02T12:02:09.302Z,55.45
2019-05-02T12:04:41.691Z,61.45
2019-05-02T12:07:08.635Z,52.80
2019-05-02T12:09:37.130Z,46.55
2019-05-02T12:12:05.656Z,48.23
2019-05-02T12:14:36.410Z,47.83
2019-05-02T12:17:04.416Z,56.08
2019-05-02T12:19:33.204Z,55.40
2019-05-02T12:22:02.618Z,54.45
2019-05-02T12:24:36.368Z,61.13
2019-05-02T12:27:03.071Z,52.90
2019-05-02T12:29:33.385Z,57.75
2019-05-02T12:32:02.615Z,55.65
2019-05-02T12:34:32.546Z,57.08
2019-05-02T12:37:01.781Z,46.63
2019-05-02T12:39:31.702Z,52.43
2019-05-02T12:42:02.649Z,47.53
2019-05-02T12:44:31.855Z,46.88
2019-05-02T12:47:02.497Z,53.58
2019-05-02T12:49:32.472Z,64.12
2019-05-02T12:52:01.782Z,53.68
2019-05-02T12:54:32.585Z,51.58
2019-05-02T12:57:02.632Z,52.50
2019-05-02T12:59:32.224Z,53.42
2019-05-02T13:02:04.050Z,52.33
2019-05-02T13:04:32.696Z,57.73
2019-05-02T13:07:03.394Z,49.08
2019-05-02T13:09:32.540Z,50.28
2019-05-02T13:12:04.536Z,47.55
2019-05-02T13:14:33.150Z,51.00
2019-05-02T13:17:05.557Z,43.87
2019-05-02T13:19:40.651Z,48.40
2019-05-02T13:22:04.242Z,46.92
2019-05-02T13:24:34.661Z,56.25
2019-05-02T13:27:05.232Z,53.63
2019-05-02T13:29:36.239Z,49.33
2019-05-02T13:32:08.770Z,50.63
2019-05-02T13:34:58.293Z,51.15
2019-05-02T13:37:27.173Z,48.10
2019-05-02T13:40:02.362Z,42.00
2019-05-02T13:42:33.715Z,34.88
2019-05-02T13:45:04.084Z,36.73
2019-05-02T13:47:32.778Z,31.97
2019-05-02T13:50:03.727Z,22.55
2019-05-02T13:52:33.231Z,12.00
2019-05-02T13:55:02.216Z,11.97
2019-05-02T13:57:35.015Z,8.75
2019-05-02T14:00:02.330Z,11.45
2019-05-02T14:02:35.255Z,11.03
2019-05-02T14:05:06.454Z,10.80
2019-05-02T14:07:35.382Z,13.25
2019-05-02T14:10:08.031Z,15.58
2019-05-02T14:12:50.273Z,17.65
2019-05-02T14:15:22.115Z,17.98
2019-05-02T14:17:52.455Z,18.07
2019-05-02T14:20:22.380Z,19.77
2019-05-02T14:22:52.743Z,17.62
2019-05-02T14:25:22.530Z,19.17
2019-05-02T14:27:53.723Z,21.00
2019-05-02T14:30:36.190Z,19.48
2019-05-02T14:32:53.761Z,19.25
2019-05-02T14:35:28.129Z,21.93
2019-05-02T14:38:10.228Z,19.92
2019-05-02T14:40:56.862Z,22.27
2019-05-02T14:43:46.731Z,20.17
2019-05-02T14:46:14.128Z,22.45
2019-05-02T14:48:45.330Z,18.45
2019-05-02T14:51:16.883Z,19.35
2019-05-02T14:53:46.914Z,26.30
2019-05-02T14:56:20.041Z,22.90
2019-05-02T14:58:48.493Z,24.70
2019-05-02T15:01:21.813Z,24.77
2019-05-02T15:03:47.920Z,32.15
2019-05-02T15:06:18.058Z,27.48
2019-05-02T15:08:47.663Z,33.00
2019-05-02T15:11:17.756Z,28.57
2019-05-02T15:13:46.246Z,29.67
2019-05-02T15:16:17.682Z,27.50
2019-05-02T15:18:47.563Z,32.83
2019-05-02T15:21:18.380Z,34.30
2019-05-02T15:23:48.896Z,35.40
2019-05-02T15:26:20.068Z,29.65
2019-05-02T15:28:48.523Z,38.67
2019-05-02T15:31:24.255Z,32.63
2019-05-02T15:33:56.291Z,37.00
2019-05-02T15:36:25.051Z,38.50
2019-05-02T15:38:53.777Z,39.33
2019-05-02T15:41:22.693Z,36.17
2019-05-02T15:43:52.339Z,36.23
2019-05-02T15:46:25.544Z,37.08
2019-05-02T15:48:52.017Z,37.30
2019-05-02T15:51:22.985Z,36.65
2019-05-02T15:54:04.982Z,36.75
2019-05-02T15:56:25.873Z,34.70
2019-05-02T15:58:58.137Z,27.27
2019-05-02T16:01:36.585Z,30.72
2019-05-02T16:04:04.237Z,30.00
2019-05-02T16:06:33.944Z,29.92
2019-05-02T16:09:03.104Z,32.95
2019-05-02T16:11:33.281Z,29.87
2019-05-02T16:14:02.313Z,33.05
2019-05-02T16:16:36.552Z,29.20
2019-05-02T16:19:04.353Z,28.27
2019-05-02T16:21:42.508Z,26.97
2019-05-02T16:24:26.976Z,27.52
2019-05-02T16:26:57.373Z,25.25
2019-05-02T16:29:28.304Z,27.25
2019-05-02T16:31:59.659Z,28.02
2019-05-02T16:34:33.936Z,29.57
2019-05-02T16:37:13.572Z,29.23
2019-05-02T16:39:42.510Z,28.98
2019-05-02T16:42:12.438Z,29.00
2019-05-02T16:44:42.909Z,28.07
2019-05-02T16:47:13.929Z,34.03
2019-05-02T16:49:47.818Z,27.32
2019-05-02T16:52:16.063Z,31.17
2019-05-02T16:54:44.804Z,30.80
2019-05-02T16:57:17.393Z,27.32
2019-05-02T16:59:43.593Z,27.37
2019-05-02T17:02:12.391Z,25.70
2019-05-02T17:04:42.829Z,29.80
2019-05-02T17:07:13.269Z,30.48
2019-05-02T17:10:02.605Z,28.42
2019-05-02T17:12:31.829Z,28.10
2019-05-02T17:15:18.717Z,27.40
2019-05-02T17:17:47.876Z,33.28
2019-05-02T17:20:17.165Z,28.35
2019-05-02T17:22:50.231Z,27.55
2019-05-02T17:25:16.223Z,24.75
2019-05-02T17:27:44.960Z,27.62
2019-05-02T17:30:13.596Z,21.35
2019-05-02T17:32:42.426Z,19.20
2019-05-02T17:35:14.519Z,17.62
2019-05-02T17:37:48.601Z,12.23
2019-05-02T17:40:16.912Z,11.95
2019-05-02T17:42:44.483Z,13.75
2019-05-02T17:45:14.393Z,10.70
2019-05-02T17:47:43.129Z,13.60
2019-05-02T17:50:19.413Z,8.28
2019-05-02T17:52:56.110Z,7.60
2019-05-02T17:55:26.721Z,7.95
2019-05-02T17:57:55.185Z,5.37
2019-05-02T18:00:25.440Z,7.30
2019-05-02T18:02:54.173Z,5.28
2019-05-02T18:05:26.623Z,6.25
2019-05-02T18:07:53.253Z,7.87
2019-05-02T18:10:23.042Z,6.72
2019-05-02T18:12:56.631Z,8.35
2019-05-02T18:15:22.859Z,6.58
2019-05-02T18:17:52.330Z,11.93
2019-05-02T18:20:21.955Z,5.42
2019-05-02T18:22:51.937Z,6.97
2019-05-02T18:25:25.158Z,4.08
2019-05-02T18:27:51.891Z,6.28
2019-05-02T18:30:25.427Z,3.62
2019-05-02T18:32:52.832Z,9.20
2019-05-02T18:35:22.092Z,6.55
2019-05-02T18:37:51.784Z,4.15
2019-05-02T18:40:27.873Z,5.50
2019-05-02T18:42:51.913Z,5.50
2019-05-02T18:45:28.540Z,8.48
2019-05-02T18:48:02.368Z,7.45
2019-05-02T18:50:29.284Z,5.78
2019-05-02T18:52:58.262Z,6.45
2019-05-02T18:55:26.853Z,9.48
2019-05-02T18:57:57.076Z,7.67
2019-05-02T19:00:27.497Z,6.72
2019-05-02T19:02:56.923Z,6.87
2019-05-02T19:05:26.572Z,7.72
2019-05-02T19:07:56.452Z,9.70
2019-05-02T19:10:26.280Z,9.03
2019-05-02T19:12:56.049Z,8.43
2019-05-02T19:15:25.679Z,5.10
2019-05-02T19:17:54.132Z,7.50
2019-05-02T19:20:32.605Z,4.80
2019-05-02T19:23:02.956Z,5.33
2019-05-02T19:25:33.056Z,7.78
2019-05-02T19:28:03.212Z,6.85
2019-05-02T19:30:33.764Z,9.83
2019-05-02T19:33:06.048Z,9.90
2019-05-02T19:35:32.853Z,5.22
2019-05-02T19:38:03.870Z,5.87
2019-05-02T19:40:32.565Z,7.75
2019-05-02T19:43:05.904Z,6.33
2019-05-02T19:45:32.724Z,4.80
2019-05-02T19:48:02.622Z,4.78
2019-05-02T19:50:43.116Z,10.23
2019-05-02T19:53:15.254Z,5.25
2019-05-02T19:55:37.938Z,3.87
2019-05-02T19:58:07.170Z,6.47
2019-05-02T20:00:36.690Z,8.15
2019-05-02T20:03:07.066Z,6.42
2019-05-02T20:05:35.816Z,7.87
2019-05-02T20:08:04.814Z,7.37
2019-05-02T20:10:33.827Z,6.33
2019-05-02T20:13:04.432Z,4.62
2019-05-02T20:15:34.981Z,6.30
2019-05-02T20:18:04.772Z,7.30
2019-05-02T20:20:41.900Z,8.00
2019-05-02T20:23:16.256Z,10.95
2019-05-02T20:25:43.119Z,8.03
2019-05-02T20:28:12.154Z,5.65
2019-05-02T20:30:42.113Z,11.22
2019-05-02T20:33:12.742Z,10.95
2019-05-02T20:35:42.172Z,6.97
2019-05-02T20:38:11.787Z,4.78
2019-05-02T20:40:42.629Z,5.75
2019-05-02T20:43:12.166Z,4.47
2019-05-02T20:45:40.802Z,6.15
2019-05-02T20:48:09.418Z,4.50
2019-05-02T20:50:38.050Z,7.65
2019-05-02T20:53:06.913Z,7.03
2019-05-02T20:55:35.446Z,5.20
2019-05-02T20:58:04.269Z,7.10
2019-05-02T21:00:33.935Z,7.05
2019-05-02T21:03:02.867Z,4.75
2019-05-02T21:05:33.498Z,5.00
2019-05-02T21:08:18.594Z,6.15
2019-05-02T21:10:52.299Z,7.62
2019-05-02T21:13:23.152Z,5.15
2019-05-02T21:15:52.371Z,6.45
2019-05-02T21:18:22.101Z,6.28
2019-05-02T21:20:52.551Z,9.50
2019-05-02T21:23:21.852Z,8.15
2019-05-02T21:25:52.369Z,5.83
2019-05-02T21:28:22.556Z,6.95
2019-05-02T21:30:52.935Z,6.35
2019-05-02T21:33:39.122Z,7.40
2019-05-02T21:36:08.621Z,5.65
2019-05-02T21:38:37.514Z,5.33
2019-05-02T21:41:09.667Z,9.18
2019-05-02T21:43:38.318Z,5.53
2019-05-02T21:46:06.883Z,7.00
2019-05-02T21:48:38.217Z,9.65
2019-05-02T21:51:16.755Z,8.68
2019-05-02T21:53:55.033Z,9.85
2019-05-02T21:56:39.168Z,8.50
2019-05-02T21:59:09.444Z,9.40
2019-05-02T22:01:42.977Z,7.60
2019-05-02T22:04:13.415Z,10.45
2019-05-02T22:06:42.816Z,8.40
2019-05-02T22:09:12.458Z,11.80
2019-05-02T22:11:42.963Z,11.43
2019-05-02T22:14:13.241Z,8.50
2019-05-02T22:16:42.326Z,10.13
2019-05-02T22:19:12.745Z,10.13
2019-05-02T22:21:43.055Z,9.48
2019-05-02T22:24:14.324Z,10.58
2019-05-02T22:26:43.604Z,10.30
2019-05-02T22:29:12.667Z,9.00
2019-05-02T22:31:43.053Z,8.33
2019-05-02T22:34:12.905Z,11.08
2019-05-02T22:36:42.238Z,11.65
2019-05-02T22:39:15.707Z,13.25
2019-05-02T22:41:44.268Z,11.10
2019-05-02T22:44:13.310Z,14.07
2019-05-02T22:46:44.494Z,10.48
2019-05-02T22:49:15.205Z,9.80
2019-05-02T22:51:44.485Z,9.40
2019-05-02T22:54:24.122Z,10.28
2019-05-02T22:56:43.824Z,13.90
2019-05-02T22:59:12.470Z,8.23
2019-05-02T23:01:42.245Z,7.92
2019-05-02T23:04:12.800Z,9.80
2019-05-02T23:06:43.877Z,9.33
2019-05-02T23:09:12.687Z,10.70
2019-05-02T23:11:43.546Z,7.65
2019-05-02T23:14:12.105Z,6.85
2019-05-02T23:16:42.643Z,8.90
2019-05-02T23:19:12.340Z,6.72
2019-05-02T23:21:42.230Z,12.28
2019-05-02T23:24:14.610Z,9.40
2019-05-02T23:26:54.321Z,10.58
2019-05-02T23:29:23.155Z,8.15
2019-05-02T23:31:52.026Z,10.72
2019-05-02T23:34:23.333Z,9.10
2019-05-02T23:36:52.262Z,7.33
2019-05-02T23:39:20.998Z,6.17
2019-05-02T23:41:49.559Z,5.28
2019-05-02T23:44:18.410Z,7.65
2019-05-02T23:46:48.507Z,7.12
2019-05-02T23:49:17.453Z,5.15
2019-05-02T23:51:46.336Z,5.35
2019-05-02T23:54:14.894Z,8.98
2019-05-02T23:56:43.817Z,5.85
2019-05-02T23:59:12.446Z,6.53
